WMT6161 EDLW-LRCL
Flight info
| Callsign | WMT6161 |
|---|---|
| Flight time | 1h 38m |
| Altitude | 37000 |
| Route | NUDGO3Q NUDGO Z858 ESADU P12 WRB/N0436F350 DCT NOMKA DCT SUVUT L620 NOTGO/N0441F370 L620 EKPEK DCT PIKIB DCT OMELO DCT ODLIV DCT OMIFU DCT PITOK DCT PERIT DCT BADOR DCT LARMU |
| Aircraft | A321/M-SDE1E2E3FGIJ1J4RWXY/LB1 |
Departure
| Time | 2026-04-27 11:34 |
|---|---|
| Airport | Dortmund Airport (EDLW) |
Arrival
| Time | 2026-04-27 13:12 |
|---|---|
| Airport | Avram Iancu Cluj International Airport (LRCL) |
| Time | Latitude | Longitude | Altitude | Speed | Heading |
|---|---|---|---|---|---|
| 2026-04-27 11:19 | 51.51440 | 7.61054 | 434 ft | 0 kts | 144° |
| 2026-04-27 11:26 | 51.51445 | 7.61048 | 418 ft | 4 kts | 143° |
| 2026-04-27 11:27 | 51.51464 | 7.61020 | 426 ft | 4 kts | 125° |
| 2026-04-27 11:27 | 51.51476 | 7.60983 | 422 ft | 4 kts | 94° |
| 2026-04-27 11:27 | 51.51473 | 7.60950 | 424 ft | 1 kts | 60° |
| 2026-04-27 11:27 | 51.51471 | 7.60944 | 424 ft | 0 kts | 60° |
| 2026-04-27 11:30 | 51.51476 | 7.60957 | 425 ft | 2 kts | 60° |
| 2026-04-27 11:30 | 51.51486 | 7.60986 | 425 ft | 4 kts | 60° |
| 2026-04-27 11:30 | 51.51502 | 7.61031 | 424 ft | 6 kts | 60° |
| 2026-04-27 11:30 | 51.51537 | 7.61057 | 427 ft | 6 kts | 358° |
| 2026-04-27 11:31 | 51.51571 | 7.61005 | 430 ft | 9 kts | 271° |
| 2026-04-27 11:31 | 51.51535 | 7.60895 | 422 ft | 14 kts | 239° |
| 2026-04-27 11:31 | 51.51475 | 7.60727 | 410 ft | 20 kts | 240° |
| 2026-04-27 11:31 | 51.51408 | 7.60536 | 415 ft | 20 kts | 242° |
| 2026-04-27 11:32 | 51.51362 | 7.60349 | 418 ft | 15 kts | 273° |
| 2026-04-27 11:32 | 51.51447 | 7.60235 | 413 ft | 17 kts | 334° |
| 2026-04-27 11:32 | 51.51494 | 7.60260 | 411 ft | 0 kts | 58° |
| 2026-04-27 11:33 | 51.51553 | 7.60426 | 412 ft | 54 kts | 60° |
| 2026-04-27 11:33 | 51.51869 | 7.61328 | 413 ft | 128 kts | 60° |
| 2026-04-27 11:34 | 51.52397 | 7.62821 | 699 ft | 162 kts | 59° |
| 2026-04-27 11:34 | 51.52930 | 7.64392 | 1635 ft | 160 kts | 60° |
| 2026-04-27 11:34 | 51.53476 | 7.65965 | 2521 ft | 164 kts | 62° |
| 2026-04-27 11:34 | 51.54058 | 7.67650 | 2968 ft | 183 kts | 62° |
| 2026-04-27 11:35 | 51.54721 | 7.69547 | 3250 ft | 205 kts | 61° |
| 2026-04-27 11:35 | 51.55470 | 7.71667 | 3598 ft | 233 kts | 62° |
| 2026-04-27 11:35 | 51.55916 | 7.74226 | 4005 ft | 253 kts | 90° |
| 2026-04-27 11:35 | 51.55823 | 7.77093 | 4765 ft | 261 kts | 93° |
| 2026-04-27 11:36 | 51.55717 | 7.80039 | 5578 ft | 268 kts | 93° |
| 2026-04-27 11:36 | 51.55614 | 7.83057 | 6462 ft | 273 kts | 92° |
| 2026-04-27 11:36 | 51.55511 | 7.86131 | 7260 ft | 278 kts | 92° |
| 2026-04-27 11:36 | 51.55404 | 7.89258 | 8098 ft | 283 kts | 91° |
| 2026-04-27 11:37 | 51.55294 | 7.92441 | 8861 ft | 287 kts | 92° |
| 2026-04-27 11:37 | 51.55182 | 7.95676 | 9614 ft | 292 kts | 92° |
| 2026-04-27 11:37 | 51.55067 | 7.98954 | 10383 ft | 296 kts | 91° |
| 2026-04-27 11:37 | 51.54949 | 8.02366 | 10700 ft | 318 kts | 91° |
| 2026-04-27 11:38 | 51.54822 | 8.06044 | 10939 ft | 340 kts | 92° |
| 2026-04-27 11:38 | 51.54685 | 8.09901 | 11478 ft | 350 kts | 92° |
| 2026-04-27 11:38 | 51.54542 | 8.13829 | 12162 ft | 355 kts | 92° |
| 2026-04-27 11:38 | 51.54395 | 8.17804 | 12848 ft | 359 kts | 92° |
| 2026-04-27 11:39 | 51.54245 | 8.21843 | 13543 ft | 364 kts | 93° |
| 2026-04-27 11:39 | 51.54094 | 8.25929 | 14183 ft | 369 kts | 92° |
| 2026-04-27 11:39 | 51.53937 | 8.30062 | 14812 ft | 373 kts | 93° |
| 2026-04-27 11:39 | 51.53776 | 8.34244 | 15434 ft | 377 kts | 93° |
| 2026-04-27 11:40 | 51.53613 | 8.38470 | 16058 ft | 381 kts | 93° |
| 2026-04-27 11:40 | 51.53450 | 8.42743 | 16668 ft | 386 kts | 93° |
| 2026-04-27 11:40 | 51.53281 | 8.47074 | 17281 ft | 390 kts | 93° |
| 2026-04-27 11:40 | 51.53107 | 8.51437 | 17899 ft | 394 kts | 93° |
| 2026-04-27 11:41 | 51.52927 | 8.55855 | 18512 ft | 398 kts | 94° |
| 2026-04-27 11:41 | 51.52743 | 8.60311 | 19049 ft | 402 kts | 94° |
| 2026-04-27 11:41 | 51.52556 | 8.64811 | 19575 ft | 406 kts | 94° |
| 2026-04-27 11:41 | 51.52367 | 8.69355 | 20120 ft | 409 kts | 94° |
| 2026-04-27 11:42 | 51.52179 | 8.73941 | 20661 ft | 413 kts | 93° |
| 2026-04-27 11:42 | 51.51991 | 8.78497 | 21189 ft | 417 kts | 93° |
| 2026-04-27 11:42 | 51.51797 | 8.83165 | 21730 ft | 421 kts | 93° |
| 2026-04-27 11:42 | 51.51601 | 8.87868 | 22250 ft | 425 kts | 93° |
| 2026-04-27 11:43 | 51.51400 | 8.92620 | 22765 ft | 428 kts | 93° |
| 2026-04-27 11:43 | 51.51191 | 8.97404 | 23253 ft | 432 kts | 93° |
| 2026-04-27 11:43 | 51.50974 | 9.02232 | 23729 ft | 436 kts | 93° |
| 2026-04-27 11:43 | 51.50753 | 9.07105 | 24137 ft | 439 kts | 93° |
| 2026-04-27 11:44 | 51.50530 | 9.12011 | 24540 ft | 442 kts | 93° |
| 2026-04-27 11:44 | 51.50323 | 9.16951 | 24943 ft | 445 kts | 92° |
| 2026-04-27 11:44 | 51.50140 | 9.21933 | 25354 ft | 448 kts | 92° |
| 2026-04-27 11:44 | 51.49968 | 9.26931 | 25771 ft | 450 kts | 92° |
| 2026-04-27 11:45 | 51.49794 | 9.31960 | 26167 ft | 453 kts | 92° |
| 2026-04-27 11:45 | 51.49673 | 9.35384 | 26437 ft | 455 kts | 92° |
| 2026-04-27 11:45 | 51.49427 | 9.42123 | 26945 ft | 459 kts | 93° |
| 2026-04-27 11:45 | 51.49233 | 9.47234 | 27325 ft | 461 kts | 93° |
| 2026-04-27 11:46 | 51.49034 | 9.52393 | 27697 ft | 464 kts | 93° |
| 2026-04-27 11:46 | 51.48833 | 9.57563 | 28063 ft | 466 kts | 93° |
| 2026-04-27 11:46 | 51.48627 | 9.62777 | 28428 ft | 469 kts | 93° |
| 2026-04-27 11:46 | 51.48418 | 9.68009 | 28784 ft | 472 kts | 93° |
| 2026-04-27 11:47 | 51.48202 | 9.73280 | 29136 ft | 474 kts | 94° |
| 2026-04-27 11:47 | 51.47978 | 9.78580 | 29484 ft | 477 kts | 94° |
| 2026-04-27 11:47 | 51.47751 | 9.83897 | 29816 ft | 480 kts | 94° |
| 2026-04-27 11:47 | 51.47524 | 9.89249 | 30148 ft | 482 kts | 94° |
| 2026-04-27 11:48 | 51.47295 | 9.94625 | 30468 ft | 485 kts | 94° |
| 2026-04-27 11:48 | 51.47065 | 10.00038 | 30758 ft | 487 kts | 94° |
| 2026-04-27 11:48 | 51.46832 | 10.05474 | 31055 ft | 490 kts | 94° |
| 2026-04-27 11:48 | 51.46594 | 10.10934 | 31368 ft | 491 kts | 94° |
| 2026-04-27 11:49 | 51.46352 | 10.16389 | 31778 ft | 490 kts | 94° |
| 2026-04-27 11:49 | 51.46105 | 10.21840 | 32181 ft | 490 kts | 94° |
| 2026-04-27 11:49 | 51.45852 | 10.27284 | 32564 ft | 490 kts | 94° |
| 2026-04-27 11:49 | 51.45598 | 10.32737 | 32967 ft | 490 kts | 94° |
| 2026-04-27 11:50 | 51.45340 | 10.38246 | 33362 ft | 489 kts | 94° |
| 2026-04-27 11:50 | 51.45088 | 10.43609 | 33733 ft | 489 kts | 94° |
| 2026-04-27 11:50 | 51.44794 | 10.49048 | 34086 ft | 490 kts | 98° |
| 2026-04-27 11:50 | 51.44124 | 10.54385 | 34419 ft | 489 kts | 105° |
| 2026-04-27 11:51 | 51.43280 | 10.59673 | 34731 ft | 489 kts | 104° |
| 2026-04-27 11:51 | 51.42443 | 10.64943 | 35049 ft | 489 kts | 104° |
| 2026-04-27 11:51 | 51.40776 | 10.75486 | 35689 ft | 488 kts | 104° |
| 2026-04-27 11:52 | 51.39940 | 10.80750 | 35996 ft | 487 kts | 104° |
| 2026-04-27 11:52 | 51.39102 | 10.86000 | 36306 ft | 487 kts | 104° |
| 2026-04-27 11:52 | 51.38261 | 10.91238 | 36610 ft | 486 kts | 104° |
| 2026-04-27 11:52 | 51.37416 | 10.96482 | 36898 ft | 486 kts | 104° |
| 2026-04-27 11:53 | 51.36573 | 11.01719 | 37173 ft | 486 kts | 104° |
| 2026-04-27 11:53 | 51.34876 | 11.12183 | 37267 ft | 485 kts | 104° |
| 2026-04-27 11:54 | 51.33172 | 11.22618 | 37269 ft | 485 kts | 104° |
| 2026-04-27 11:54 | 51.31454 | 11.33050 | 37269 ft | 486 kts | 104° |
| 2026-04-27 11:55 | 51.29719 | 11.43485 | 37271 ft | 486 kts | 104° |
| 2026-04-27 11:55 | 51.27969 | 11.53908 | 37278 ft | 486 kts | 104° |
| 2026-04-27 11:56 | 51.26200 | 11.64338 | 37285 ft | 487 kts | 104° |
| 2026-04-27 11:56 | 51.24441 | 11.74786 | 37290 ft | 487 kts | 104° |
| 2026-04-27 11:57 | 51.22671 | 11.85234 | 37290 ft | 488 kts | 104° |
| 2026-04-27 11:57 | 51.20891 | 11.95605 | 37293 ft | 488 kts | 104° |
| 2026-04-27 11:58 | 51.19105 | 12.06040 | 37295 ft | 488 kts | 104° |
| 2026-04-27 11:58 | 51.17318 | 12.16478 | 37295 ft | 488 kts | 104° |
| 2026-04-27 11:59 | 51.15511 | 12.26913 | 37294 ft | 489 kts | 104° |
| 2026-04-27 11:59 | 51.13672 | 12.37338 | 37297 ft | 489 kts | 104° |
| 2026-04-27 12:00 | 51.11819 | 12.47758 | 37296 ft | 489 kts | 104° |
| 2026-04-27 12:00 | 51.09963 | 12.58169 | 37297 ft | 489 kts | 104° |
| 2026-04-27 12:01 | 51.08098 | 12.68577 | 37296 ft | 489 kts | 104° |
| 2026-04-27 12:01 | 51.06220 | 12.78981 | 37287 ft | 490 kts | 104° |
| 2026-04-27 12:02 | 51.04334 | 12.89386 | 37288 ft | 490 kts | 104° |
| 2026-04-27 12:02 | 51.02432 | 12.99777 | 37288 ft | 490 kts | 104° |
| 2026-04-27 12:03 | 51.00522 | 13.10156 | 37283 ft | 490 kts | 104° |
| 2026-04-27 12:03 | 50.98604 | 13.20528 | 37284 ft | 490 kts | 104° |
| 2026-04-27 12:04 | 50.96677 | 13.30880 | 37281 ft | 490 kts | 104° |
| 2026-04-27 12:04 | 50.94771 | 13.41251 | 37286 ft | 490 kts | 104° |
| 2026-04-27 12:05 | 50.92896 | 13.51559 | 37284 ft | 490 kts | 104° |
| 2026-04-27 12:05 | 50.90999 | 13.61924 | 37291 ft | 490 kts | 104° |
| 2026-04-27 12:06 | 50.89070 | 13.72345 | 37283 ft | 490 kts | 104° |
| 2026-04-27 12:06 | 50.87141 | 13.82618 | 37285 ft | 490 kts | 104° |
| 2026-04-27 12:07 | 50.85167 | 13.92934 | 37278 ft | 490 kts | 105° |
| 2026-04-27 12:07 | 50.82618 | 14.02903 | 37263 ft | 491 kts | 120° |
| 2026-04-27 12:08 | 50.78953 | 14.12025 | 37269 ft | 492 kts | 122° |
| 2026-04-27 12:08 | 50.75268 | 14.21137 | 37273 ft | 492 kts | 122° |
| 2026-04-27 12:09 | 50.71576 | 14.30226 | 37277 ft | 492 kts | 122° |
| 2026-04-27 12:09 | 50.67874 | 14.39286 | 37267 ft | 492 kts | 122° |
| 2026-04-27 12:10 | 50.64164 | 14.48346 | 37263 ft | 492 kts | 122° |
| 2026-04-27 12:10 | 50.60445 | 14.57388 | 37267 ft | 492 kts | 122° |
| 2026-04-27 12:11 | 50.56723 | 14.66407 | 37263 ft | 492 kts | 122° |
| 2026-04-27 12:11 | 50.52994 | 14.75417 | 37264 ft | 491 kts | 122° |
| 2026-04-27 12:12 | 50.49265 | 14.84406 | 37272 ft | 491 kts | 122° |
| 2026-04-27 12:12 | 50.45533 | 14.93385 | 37278 ft | 491 kts | 122° |
| 2026-04-27 12:13 | 50.41802 | 15.02367 | 37276 ft | 491 kts | 122° |
| 2026-04-27 12:13 | 50.38065 | 15.11310 | 37267 ft | 491 kts | 122° |
| 2026-04-27 12:14 | 50.34316 | 15.20239 | 37268 ft | 490 kts | 122° |
| 2026-04-27 12:14 | 50.30563 | 15.29159 | 37269 ft | 490 kts | 122° |
| 2026-04-27 12:15 | 50.26813 | 15.38058 | 37270 ft | 490 kts | 122° |
| 2026-04-27 12:15 | 50.23057 | 15.46940 | 37276 ft | 490 kts | 122° |
| 2026-04-27 12:16 | 50.19292 | 15.55815 | 37273 ft | 490 kts | 122° |
| 2026-04-27 12:16 | 50.15522 | 15.64663 | 37267 ft | 490 kts | 123° |
| 2026-04-27 12:17 | 50.11744 | 15.73496 | 37269 ft | 489 kts | 122° |
| 2026-04-27 12:17 | 50.07964 | 15.82308 | 37269 ft | 489 kts | 123° |
| 2026-04-27 12:18 | 50.04176 | 15.91092 | 37266 ft | 489 kts | 123° |
| 2026-04-27 12:18 | 50.00561 | 16.00031 | 37265 ft | 487 kts | 117° |
| 2026-04-27 12:19 | 49.97829 | 16.07771 | 37263 ft | 487 kts | 117° |
| 2026-04-27 12:19 | 49.94558 | 16.16985 | 37265 ft | 487 kts | 117° |
| 2026-04-27 12:20 | 49.91281 | 16.26192 | 37260 ft | 487 kts | 117° |
| 2026-04-27 12:20 | 49.88004 | 16.35371 | 37264 ft | 487 kts | 117° |
| 2026-04-27 12:21 | 49.84713 | 16.44544 | 37258 ft | 486 kts | 117° |
| 2026-04-27 12:21 | 49.81417 | 16.53692 | 37259 ft | 486 kts | 118° |
| 2026-04-27 12:22 | 49.78121 | 16.62826 | 37260 ft | 486 kts | 118° |
| 2026-04-27 12:22 | 49.74814 | 16.71953 | 37261 ft | 486 kts | 118° |
| 2026-04-27 12:23 | 49.71494 | 16.81056 | 37257 ft | 486 kts | 118° |
| 2026-04-27 12:23 | 49.68174 | 16.90153 | 37256 ft | 486 kts | 118° |
| 2026-04-27 12:24 | 49.64843 | 16.99237 | 37258 ft | 486 kts | 118° |
| 2026-04-27 12:24 | 49.61505 | 17.08314 | 37258 ft | 486 kts | 118° |
| 2026-04-27 12:25 | 49.58164 | 17.17373 | 37259 ft | 486 kts | 118° |
| 2026-04-27 12:25 | 49.54809 | 17.26431 | 37260 ft | 486 kts | 118° |
| 2026-04-27 12:26 | 49.51447 | 17.35472 | 37260 ft | 487 kts | 118° |
| 2026-04-27 12:26 | 49.48078 | 17.44506 | 37260 ft | 487 kts | 118° |
| 2026-04-27 12:27 | 49.44706 | 17.53523 | 37258 ft | 487 kts | 118° |
| 2026-04-27 12:27 | 49.41326 | 17.62530 | 37258 ft | 487 kts | 118° |
| 2026-04-27 12:28 | 49.37931 | 17.71530 | 37259 ft | 487 kts | 119° |
| 2026-04-27 12:28 | 49.34533 | 17.80512 | 37257 ft | 487 kts | 119° |
| 2026-04-27 12:29 | 49.31135 | 17.89482 | 37256 ft | 487 kts | 119° |
| 2026-04-27 12:29 | 49.27728 | 17.98446 | 37251 ft | 487 kts | 119° |
| 2026-04-27 12:30 | 49.24337 | 18.07335 | 37254 ft | 487 kts | 119° |
| 2026-04-27 12:30 | 49.20888 | 18.16334 | 37245 ft | 487 kts | 119° |
| 2026-04-27 12:31 | 49.17478 | 18.25190 | 37242 ft | 487 kts | 119° |
| 2026-04-27 12:31 | 49.14040 | 18.34103 | 37239 ft | 487 kts | 119° |
| 2026-04-27 12:32 | 49.10591 | 18.42999 | 37244 ft | 487 kts | 119° |
| 2026-04-27 12:32 | 49.07142 | 18.51883 | 37244 ft | 487 kts | 119° |
| 2026-04-27 12:33 | 49.03682 | 18.60773 | 37246 ft | 487 kts | 120° |
| 2026-04-27 12:33 | 49.00214 | 18.69626 | 37241 ft | 486 kts | 120° |
| 2026-04-27 12:34 | 48.96747 | 18.78461 | 37235 ft | 486 kts | 120° |
| 2026-04-27 12:34 | 48.93287 | 18.87280 | 37233 ft | 486 kts | 120° |
| 2026-04-27 12:35 | 48.89807 | 18.96091 | 37231 ft | 486 kts | 120° |
| 2026-04-27 12:35 | 48.86317 | 19.04872 | 37238 ft | 485 kts | 120° |
| 2026-04-27 12:36 | 48.82825 | 19.13654 | 37228 ft | 486 kts | 120° |
| 2026-04-27 12:36 | 48.79329 | 19.22419 | 37228 ft | 486 kts | 120° |
| 2026-04-27 12:37 | 48.75828 | 19.31172 | 37228 ft | 486 kts | 120° |
| 2026-04-27 12:37 | 48.72312 | 19.39918 | 37222 ft | 486 kts | 120° |
| 2026-04-27 12:38 | 48.68796 | 19.48652 | 37216 ft | 486 kts | 120° |
| 2026-04-27 12:38 | 48.65298 | 19.57314 | 37224 ft | 485 kts | 120° |
| 2026-04-27 12:39 | 48.61770 | 19.66007 | 37216 ft | 485 kts | 121° |
| 2026-04-27 12:39 | 48.58238 | 19.74678 | 37220 ft | 485 kts | 121° |
| 2026-04-27 12:40 | 48.54683 | 19.83380 | 37208 ft | 485 kts | 121° |
| 2026-04-27 12:40 | 48.51149 | 19.92031 | 37218 ft | 484 kts | 121° |
| 2026-04-27 12:41 | 48.47627 | 20.00613 | 37218 ft | 484 kts | 121° |
| 2026-04-27 12:41 | 48.44078 | 20.09229 | 37226 ft | 484 kts | 121° |
| 2026-04-27 12:42 | 48.40520 | 20.17821 | 37229 ft | 484 kts | 121° |
| 2026-04-27 12:42 | 48.36948 | 20.26405 | 37237 ft | 484 kts | 121° |
| 2026-04-27 12:43 | 48.33385 | 20.34980 | 37236 ft | 483 kts | 121° |
| 2026-04-27 12:43 | 48.29813 | 20.43534 | 37231 ft | 483 kts | 122° |
| 2026-04-27 12:44 | 48.26227 | 20.52071 | 37241 ft | 483 kts | 122° |
| 2026-04-27 12:44 | 48.22628 | 20.60581 | 37238 ft | 483 kts | 122° |
| 2026-04-27 12:45 | 48.19030 | 20.69080 | 37241 ft | 482 kts | 122° |
| 2026-04-27 12:45 | 48.15435 | 20.77563 | 37237 ft | 482 kts | 122° |
| 2026-04-27 12:46 | 48.11840 | 20.85957 | 37247 ft | 482 kts | 122° |
| 2026-04-27 12:46 | 48.08228 | 20.94396 | 37256 ft | 482 kts | 122° |
| 2026-04-27 12:47 | 48.04620 | 21.02828 | 37261 ft | 481 kts | 122° |
| 2026-04-27 12:47 | 48.00997 | 21.11236 | 37258 ft | 481 kts | 123° |
| 2026-04-27 12:48 | 47.97382 | 21.19638 | 37258 ft | 481 kts | 122° |
| 2026-04-27 12:48 | 47.93770 | 21.28024 | 37269 ft | 481 kts | 123° |
| 2026-04-27 12:49 | 47.90143 | 21.36402 | 37271 ft | 481 kts | 123° |
| 2026-04-27 12:49 | 47.86509 | 21.44765 | 37107 ft | 481 kts | 123° |
| 2026-04-27 12:49 | 47.84667 | 21.48984 | 36184 ft | 489 kts | 123° |
| 2026-04-27 12:50 | 47.82807 | 21.53231 | 35451 ft | 492 kts | 123° |
| 2026-04-27 12:50 | 47.80932 | 21.57498 | 34883 ft | 491 kts | 123° |
| 2026-04-27 12:50 | 47.79065 | 21.61748 | 34326 ft | 490 kts | 123° |
| 2026-04-27 12:50 | 47.77207 | 21.65982 | 33812 ft | 487 kts | 123° |
| 2026-04-27 12:51 | 47.75364 | 21.70179 | 33317 ft | 483 kts | 123° |
| 2026-04-27 12:51 | 47.73533 | 21.74338 | 32817 ft | 479 kts | 123° |
| 2026-04-27 12:51 | 47.71713 | 21.78472 | 32332 ft | 476 kts | 123° |
| 2026-04-27 12:51 | 47.69935 | 21.82507 | 31856 ft | 472 kts | 123° |
| 2026-04-27 12:52 | 47.68142 | 21.86569 | 31363 ft | 468 kts | 124° |
| 2026-04-27 12:52 | 47.66364 | 21.90588 | 30880 ft | 465 kts | 124° |
| 2026-04-27 12:52 | 47.64594 | 21.94576 | 30411 ft | 461 kts | 124° |
| 2026-04-27 12:52 | 47.62837 | 21.98530 | 29890 ft | 457 kts | 124° |
| 2026-04-27 12:53 | 47.59375 | 22.06298 | 28986 ft | 446 kts | 124° |
| 2026-04-27 12:53 | 47.57694 | 22.10125 | 28543 ft | 441 kts | 121° |
| 2026-04-27 12:53 | 47.56323 | 22.14158 | 28117 ft | 436 kts | 114° |
| 2026-04-27 12:54 | 47.55067 | 22.18213 | 27785 ft | 429 kts | 115° |
| 2026-04-27 12:54 | 47.53774 | 22.22128 | 27680 ft | 418 kts | 117° |
| 2026-04-27 12:54 | 47.52452 | 22.25922 | 27345 ft | 414 kts | 118° |
| 2026-04-27 12:54 | 47.51104 | 22.29678 | 26906 ft | 412 kts | 118° |
| 2026-04-27 12:55 | 47.49756 | 22.33406 | 26482 ft | 411 kts | 118° |
| 2026-04-27 12:55 | 47.48419 | 22.37124 | 26050 ft | 409 kts | 118° |
| 2026-04-27 12:55 | 47.47094 | 22.40844 | 25625 ft | 408 kts | 117° |
| 2026-04-27 12:55 | 47.45784 | 22.44544 | 25194 ft | 406 kts | 117° |
| 2026-04-27 12:56 | 47.44479 | 22.48247 | 24755 ft | 406 kts | 117° |
| 2026-04-27 12:56 | 47.43179 | 22.51938 | 24317 ft | 405 kts | 117° |
| 2026-04-27 12:56 | 47.41880 | 22.55626 | 23866 ft | 405 kts | 117° |
| 2026-04-27 12:56 | 47.40581 | 22.59302 | 23364 ft | 403 kts | 117° |
| 2026-04-27 12:57 | 47.39282 | 22.62958 | 22907 ft | 401 kts | 117° |
| 2026-04-27 12:57 | 47.37988 | 22.66586 | 22440 ft | 398 kts | 117° |
| 2026-04-27 12:57 | 47.36698 | 22.70189 | 21979 ft | 396 kts | 118° |
| 2026-04-27 12:57 | 47.35414 | 22.73774 | 21502 ft | 394 kts | 118° |
| 2026-04-27 12:58 | 47.34141 | 22.77339 | 21032 ft | 392 kts | 117° |
| 2026-04-27 12:58 | 47.32890 | 22.80848 | 20574 ft | 391 kts | 118° |
| 2026-04-27 12:58 | 47.31626 | 22.84385 | 20102 ft | 390 kts | 118° |
| 2026-04-27 12:58 | 47.30361 | 22.87917 | 19630 ft | 389 kts | 118° |
| 2026-04-27 12:59 | 47.29101 | 22.91434 | 19162 ft | 388 kts | 118° |
| 2026-04-27 12:59 | 47.27839 | 22.94945 | 18690 ft | 388 kts | 118° |
| 2026-04-27 12:59 | 47.26580 | 22.98448 | 18179 ft | 387 kts | 118° |
| 2026-04-27 12:59 | 47.25324 | 23.01936 | 17709 ft | 384 kts | 118° |
| 2026-04-27 13:00 | 47.24075 | 23.05396 | 17243 ft | 381 kts | 118° |
| 2026-04-27 13:00 | 47.22833 | 23.08831 | 16770 ft | 379 kts | 118° |
| 2026-04-27 13:00 | 47.21599 | 23.12243 | 16317 ft | 377 kts | 118° |
| 2026-04-27 13:00 | 47.20373 | 23.15635 | 15849 ft | 375 kts | 118° |
| 2026-04-27 13:01 | 47.19149 | 23.19009 | 15395 ft | 373 kts | 118° |
| 2026-04-27 13:01 | 47.17928 | 23.22364 | 14933 ft | 371 kts | 118° |
| 2026-04-27 13:01 | 47.16712 | 23.25697 | 14474 ft | 369 kts | 118° |
| 2026-04-27 13:01 | 47.15502 | 23.29012 | 14025 ft | 368 kts | 118° |
| 2026-04-27 13:02 | 47.14297 | 23.32314 | 13560 ft | 366 kts | 118° |
| 2026-04-27 13:02 | 47.13118 | 23.35556 | 13378 ft | 354 kts | 118° |
| 2026-04-27 13:02 | 47.11976 | 23.38689 | 13235 ft | 342 kts | 118° |
| 2026-04-27 13:02 | 47.10869 | 23.41715 | 12954 ft | 335 kts | 118° |
| 2026-04-27 13:03 | 47.09759 | 23.44740 | 12448 ft | 338 kts | 118° |
| 2026-04-27 13:03 | 47.08644 | 23.47783 | 11921 ft | 340 kts | 118° |
| 2026-04-27 13:03 | 47.07519 | 23.50846 | 11423 ft | 341 kts | 118° |
| 2026-04-27 13:03 | 47.06390 | 23.53912 | 10916 ft | 342 kts | 118° |
| 2026-04-27 13:04 | 47.05254 | 23.56996 | 10425 ft | 344 kts | 118° |
| 2026-04-27 13:04 | 47.04125 | 23.60062 | 9920 ft | 339 kts | 118° |
| 2026-04-27 13:04 | 47.03019 | 23.63064 | 9399 ft | 331 kts | 119° |
| 2026-04-27 13:04 | 47.01936 | 23.66000 | 8891 ft | 322 kts | 119° |
| 2026-04-27 13:05 | 47.00882 | 23.68853 | 8383 ft | 315 kts | 119° |
| 2026-04-27 13:05 | 46.99851 | 23.71641 | 7909 ft | 308 kts | 120° |
| 2026-04-27 13:05 | 46.98838 | 23.74372 | 7427 ft | 303 kts | 120° |
| 2026-04-27 13:05 | 46.97840 | 23.77061 | 6952 ft | 298 kts | 120° |
| 2026-04-27 13:06 | 46.96859 | 23.79700 | 6476 ft | 293 kts | 121° |
| 2026-04-27 13:06 | 46.95899 | 23.82272 | 5969 ft | 289 kts | 120° |
| 2026-04-27 13:06 | 46.95254 | 23.84006 | 5642 ft | 284 kts | 120° |
| 2026-04-27 13:06 | 46.94207 | 23.86373 | 5169 ft | 271 kts | 132° |
| 2026-04-27 13:07 | 46.92841 | 23.88182 | 4713 ft | 261 kts | 147° |
| 2026-04-27 13:07 | 46.91270 | 23.89367 | 4427 ft | 249 kts | 161° |
| 2026-04-27 13:07 | 46.89636 | 23.90135 | 4288 ft | 242 kts | 163° |
| 2026-04-27 13:07 | 46.88073 | 23.90871 | 4137 ft | 232 kts | 163° |
| 2026-04-27 13:08 | 46.86578 | 23.91558 | 3960 ft | 217 kts | 168° |
| 2026-04-27 13:08 | 46.84705 | 23.91248 | 3851 ft | 200 kts | 210° |
| 2026-04-27 13:08 | 46.83966 | 23.90456 | 3814 ft | 193 kts | 229° |
| 2026-04-27 13:08 | 46.83302 | 23.88812 | 3734 ft | 188 kts | 253° |
| 2026-04-27 13:09 | 46.82899 | 23.87001 | 3529 ft | 187 kts | 254° |
| 2026-04-27 13:09 | 46.82500 | 23.85193 | 3310 ft | 185 kts | 253° |
| 2026-04-27 13:09 | 46.82110 | 23.83438 | 3064 ft | 179 kts | 253° |
| 2026-04-27 13:09 | 46.81739 | 23.81782 | 2810 ft | 164 kts | 253° |
| 2026-04-27 13:10 | 46.81403 | 23.80282 | 2580 ft | 149 kts | 254° |
| 2026-04-27 13:10 | 46.81086 | 23.78866 | 2392 ft | 144 kts | 253° |
| 2026-04-27 13:10 | 46.80781 | 23.77503 | 2181 ft | 143 kts | 253° |
| 2026-04-27 13:10 | 46.80471 | 23.76121 | 1988 ft | 144 kts | 255° |
| 2026-04-27 13:11 | 46.80161 | 23.74735 | 1782 ft | 143 kts | 255° |
| 2026-04-27 13:11 | 46.79848 | 23.73349 | 1609 ft | 144 kts | 255° |
| 2026-04-27 13:11 | 46.79537 | 23.71956 | 1418 ft | 144 kts | 255° |
| 2026-04-27 13:11 | 46.79231 | 23.70560 | 1213 ft | 144 kts | 256° |
| 2026-04-27 13:12 | 46.78916 | 23.69182 | 1050 ft | 136 kts | 255° |
| 2026-04-27 13:12 | 46.78684 | 23.68127 | 1043 ft | 70 kts | 251° |
| 2026-04-27 13:12 | 46.78571 | 23.67622 | 1043 ft | 47 kts | 252° |
| 2026-04-27 13:12 | 46.78491 | 23.67274 | 1043 ft | 26 kts | 250° |
| 2026-04-27 13:13 | 46.78433 | 23.67185 | 1043 ft | 11 kts | 189° |
| 2026-04-27 13:13 | 46.78365 | 23.67244 | 1043 ft | 12 kts | 131° |
| 2026-04-27 13:13 | 46.78344 | 23.67368 | 1043 ft | 14 kts | 82° |
| 2026-04-27 13:13 | 46.78364 | 23.67513 | 1043 ft | 16 kts | 77° |
| 2026-04-27 13:14 | 46.78397 | 23.67671 | 1043 ft | 17 kts | 71° |
| 2026-04-27 13:14 | 46.78437 | 23.67844 | 1043 ft | 19 kts | 72° |
| 2026-04-27 13:14 | 46.78479 | 23.68033 | 1043 ft | 20 kts | 71° |
| 2026-04-27 13:14 | 46.78518 | 23.68203 | 1043 ft | 8 kts | 77° |
| 2026-04-27 13:15 | 46.78483 | 23.68269 | 1043 ft | 9 kts | 130° |
| 2026-04-27 13:15 | 46.78483 | 23.68365 | 1043 ft | 11 kts | 78° |
| 2026-04-27 13:15 | 46.78499 | 23.68481 | 1043 ft | 13 kts | 78° |
| 2026-04-27 13:15 | 46.78514 | 23.68601 | 1043 ft | 9 kts | 89° |
| 2026-04-27 13:16 | 46.78463 | 23.68644 | 1043 ft | 10 kts | 167° |
| 2026-04-27 13:16 | 46.78414 | 23.68703 | 1043 ft | 11 kts | 98° |
| 2026-04-27 13:16 | 46.78415 | 23.68805 | 1043 ft | 6 kts | 112° |
| 2026-04-27 13:16 | 46.78387 | 23.68813 | 1043 ft | 4 kts | 176° |
| 2026-04-27 13:17 | 46.78366 | 23.68816 | 1043 ft | 2 kts | 175° |
| 2026-04-27 13:17 | 46.78361 | 23.68816 | 1043 ft | 0 kts | 175° |